This is the latest recevied weather packets stored in our database for station/object AI9F. If no packets are shown the sender has not sent any weather packets the latest 10 day(s).
| Time | Temp. | Humidity | Pressure | Rain* | Wind** | Luminosity | Snow |
|---|---|---|---|---|---|---|---|
| 1778089874 | 13.33° C | 71% | 1015.9 hPa | 0 mm | - | 266 W/m² | - |
| 1778089574 | 12.78° C | 70% | 1015.9 hPa | 0 mm | - | 241 W/m² | - |
| 1778089270 | 12.78° C | 70% | 1015.9 hPa | 0 mm | - | 221 W/m² | - |
| 1778088968 | 12.78° C | 70% | 1016 hPa | 0 mm | - | 195 W/m² | - |
| 1778088664 | 13.33° C | 73% | 1015.9 hPa | 0 mm | - | 214 W/m² | - |
| 1778088362 | 13.33° C | 72% | 1015.8 hPa | 0 mm | - | 310 W/m² | - |
| 1778088057 | 13.33° C | 69% | 1015.9 hPa | 0 mm | - | 307 W/m² | - |
| 1778087755 | 13.33° C | 73% | 1015.9 hPa | 0 mm | - | 298 W/m² | - |
| 1778087453 | 12.78° C | 72% | 1015.8 hPa | 0 mm | - | 362 W/m² | - |
| 1778087150 | 12.78° C | 71% | 1016 hPa | 0 mm | - | 298 W/m² | - |
| 1778086847 | 12.78° C | 73% | 1016.2 hPa | 0 mm | - | 214 W/m² | - |
| 1778086546 | 13.33° C | 72% | 1016.2 hPa | 0 mm | - | 210 W/m² | - |
| 1778086242 | 13.33° C | 72% | 1016.4 hPa | 0 mm | - | 236 W/m² | - |
| 1778085939 | 13.89° C | 71% | 1016.2 hPa | 0 mm | - | 309 W/m² | - |
| 1778085636 | 13.89° C | 73% | 1015.8 hPa | 0 mm | - | 357 W/m² | - |
| 1778085332 | 13.33° C | 74% | 1015.6 hPa | 0 mm | - | 528 W/m² | - |
| 1778085028 | 13.33° C | 72% | 1015.7 hPa | 0 mm | - | 474 W/m² | - |
| 1778084724 | 13.33° C | 73% | 1015.9 hPa | 0 mm | - | 423 W/m² | - |
| 1778084422 | 12.78° C | 71% | 1015.7 hPa | 0 mm | - | 507 W/m² | - |
| 1778084119 | 12.78° C | 73% | 1015.4 hPa | 0 mm | - | 454 W/m² | - |
| 1778083816 | 12.78° C | 73% | 1015.6 hPa | 0 mm | - | 347 W/m² | - |
| 1778083513 | 12.78° C | 76% | 1015.4 hPa | 0 mm | - | 450 W/m² | - |
| 1778083211 | 12.22° C | 80% | 1015.5 hPa | 0 mm | - | 498 W/m² | - |
| 1778082909 | 12.22° C | 78% | 1015.5 hPa | 0 mm | - | 259 W/m² | - |
| 1778081800 | 11.67° C | 79% | 1015.8 hPa | 0 mm | - | 171 W/m² | - |
* Rain latest hour (hover to see other rain measurements)
** Current wind speed in m/s (hover to see current wind gust speed)